Time;durP1;ratioP1;P1;durP2;ratioP2;P2;SDS_P1;SDS_P2;PMS_P1;PMS_P2;Temp;Humidity;BMP_temperature;BMP_pressure;BME280_temperature;BME280_humidity;BME280_pressure;Samples;Min_cycle;Max_cycle;Signal;HPM_P1;HPM_P2
2023/06/26 00:01:57;;;;;;;10.32;8.75;;;22.40;99.90;;;;;;6248849;22;20061;-80
2023/06/26 00:04:23;;;;;;;12.18;9.07;;;22.50;99.90;;;;;;6327609;22;20086;-79
2023/06/26 00:06:48;;;;;;;9.90;8.68;;;22.50;99.90;;;;;;6275502;22;20015;-80
2023/06/26 00:09:14;;;;;;;12.13;9.25;;;22.50;99.90;;;;;;6275831;22;20134;-80
2023/06/26 00:11:40;;;;;;;10.55;9.15;;;22.50;99.90;;;;;;6326872;22;20016;-80
2023/06/26 00:14:06;;;;;;;11.48;9.82;;;22.50;99.90;;;;;;6249858;22;20014;-80
2023/06/26 00:16:32;;;;;;;12.90;10.02;;;22.60;99.90;;;;;;6300283;22;20012;-81
2023/06/26 00:18:58;;;;;;;11.75;10.05;;;22.50;99.90;;;;;;6250229;22;20007;-81
2023/06/26 00:21:25;;;;;;;11.85;10.20;;;22.50;99.90;;;;;;6273975;22;20338;-81
2023/06/26 00:23:51;;;;;;;12.07;9.25;;;22.50;99.90;;;;;;6275071;22;20407;-81
2023/06/26 00:26:16;;;;;;;11.23;9.05;;;22.50;99.90;;;;;;6274461;22;20339;-81
2023/06/26 00:28:42;;;;;;;11.88;9.95;;;22.50;99.90;;;;;;6327353;22;20015;-81
2023/06/26 00:31:08;;;;;;;12.25;9.32;;;22.50;99.90;;;;;;6275026;22;20016;-80
2023/06/26 00:33:33;;;;;;;12.88;9.40;;;22.50;99.90;;;;;;6275528;22;20035;-81
2023/06/26 00:35:59;;;;;;;12.35;9.75;;;22.50;99.90;;;;;;6249443;22;20012;-81
2023/06/26 00:38:24;;;;;;;11.57;9.07;;;22.50;99.90;;;;;;6249271;22;20015;-81
2023/06/26 00:40:50;;;;;;;12.32;9.98;;;22.50;99.90;;;;;;6274944;22;20053;-81
2023/06/26 00:43:16;;;;;;;13.45;10.20;;;22.50;99.90;;;;;;6301176;22;20469;-81
2023/06/26 00:45:41;;;;;;;13.95;10.10;;;22.60;99.90;;;;;;6249474;22;20133;-81
2023/06/26 00:48:08;;;;;;;12.23;9.38;;;22.50;99.90;;;;;;6275446;22;20118;-81
2023/06/26 00:50:34;;;;;;;11.23;9.38;;;22.50;99.90;;;;;;6274922;22;20007;-81
2023/06/26 00:53:01;;;;;;;12.80;8.38;;;22.30;99.90;;;;;;6249850;22;20046;-80
2023/06/26 00:55:27;;;;;;;11.30;9.43;;;22.30;99.90;;;;;;6249259;22;20011;-80
2023/06/26 00:57:54;;;;;;;11.38;9.45;;;22.40;99.90;;;;;;6249538;22;20008;-81
2023/06/26 01:00:20;;;;;;;12.20;10.07;;;22.20;99.90;;;;;;6249283;22;20012;-82
2023/06/26 01:02:46;;;;;;;11.38;8.88;;;22.20;99.90;;;;;;6249617;22;20011;-81
2023/06/26 01:05:18;;;;;;;11.85;9.75;;;22.20;99.90;;;;;;6300522;22;20087;-80
2023/06/26 01:07:44;;;;;;;12.07;9.10;;;22.20;99.90;;;;;;6275022;22;20022;-81
2023/06/26 01:10:10;;;;;;;10.52;9.07;;;22.10;99.90;;;;;;6275394;22;20047;-82
2023/06/26 01:12:38;;;;;;;11.10;9.05;;;22.10;99.90;;;;;;6249544;22;20019;-80
2023/06/26 01:15:04;;;;;;;11.43;8.98;;;22.10;99.90;;;;;;6274541;22;20016;-81
2023/06/26 01:17:31;;;;;;;12.50;9.63;;;22.10;99.90;;;;;;6248833;22;20015;-81
2023/06/26 01:19:59;;;;;;;11.40;9.90;;;22.20;99.90;;;;;;6249200;22;20023;-80
2023/06/26 01:22:44;;;;;;;12.60;9.55;;;22.20;99.90;;;;;;6275142;22;20008;-81
2023/06/26 01:25:38;;;;;;;10.82;9.02;;;22.20;99.90;;;;;;6274047;22;20019;-80
2023/06/26 01:28:06;;;;;;;11.50;9.18;;;22.20;99.90;;;;;;6273057;22;20232;-80
2023/06/26 01:30:32;;;;;;;10.75;8.77;;;22.10;99.90;;;;;;6274507;22;20007;-80
2023/06/26 01:32:59;;;;;;;12.70;9.82;;;22.10;99.90;;;;;;6248557;22;20018;-81
2023/06/26 01:35:25;;;;;;;11.07;9.85;;;22.10;99.90;;;;;;6248934;22;20319;-80
2023/06/26 01:37:51;;;;;;;12.82;10.10;;;22.00;99.90;;;;;;6274820;22;20090;-80
2023/06/26 01:40:16;;;;;;;12.60;9.65;;;22.00;99.90;;;;;;6249051;22;20039;-81
2023/06/26 01:42:42;;;;;;;12.75;9.98;;;22.00;99.90;;;;;;6274917;22;20012;-80
2023/06/26 01:45:20;;;;;;;13.52;9.88;;;22.00;99.90;;;;;;6274585;22;20012;-80
2023/06/26 01:47:50;;;;;;;11.98;10.10;;;21.90;99.90;;;;;;6248902;22;20038;-80
2023/06/26 01:50:24;;;;;;;11.20;9.88;;;21.90;99.90;;;;;;6249522;22;20016;-80
2023/06/26 01:53:16;;;;;;;11.88;10.15;;;21.80;99.90;;;;;;6274456;22;20012;-81
2023/06/26 01:55:53;;;;;;;12.10;9.70;;;21.80;99.90;;;;;;6274455;22;20346;-81
2023/06/26 01:58:22;;;;;;;12.27;10.55;;;21.80;99.90;;;;;;6248919;22;20007;-81
2023/06/26 02:00:48;;;;;;;11.73;10.40;;;21.90;99.90;;;;;;6274777;22;20086;-81
2023/06/26 02:03:14;;;;;;;12.38;10.88;;;21.90;99.90;;;;;;6274819;22;20008;-81
2023/06/26 02:05:39;;;;;;;13.63;10.75;;;22.10;99.90;;;;;;6248679;22;20446;-81
2023/06/26 02:08:05;;;;;;;12.32;10.50;;;22.00;99.90;;;;;;6250533;22;20019;-81
2023/06/26 02:10:31;;;;;;;13.45;11.93;;;22.10;99.90;;;;;;6276593;22;20076;-81
2023/06/26 02:12:57;;;;;;;13.48;10.73;;;22.00;99.90;;;;;;6276708;22;20105;-81
2023/06/26 02:15:22;;;;;;;12.38;10.73;;;21.90;99.90;;;;;;6250938;22;20011;-80
2023/06/26 02:17:48;;;;;;;13.57;11.32;;;21.80;99.90;;;;;;6276683;22;20384;-81
2023/06/26 02:20:17;;;;;;;12.18;10.15;;;21.80;99.90;;;;;;6250941;22;20388;-81
2023/06/26 02:22:42;;;;;;;12.32;10.65;;;21.70;99.90;;;;;;6275258;22;20040;-81
2023/06/26 02:25:10;;;;;;;12.73;10.50;;;21.70;99.90;;;;;;6251260;22;20023;-80
2023/06/26 02:27:35;;;;;;;12.38;10.88;;;21.60;99.90;;;;;;6251250;22;20012;-81
2023/06/26 02:30:01;;;;;;;13.35;11.23;;;21.60;99.90;;;;;;6276685;22;20390;-81
2023/06/26 02:32:27;;;;;;;13.23;11.00;;;21.60;99.90;;;;;;6276302;22;20446;-81
2023/06/26 02:34:52;;;;;;;13.30;10.23;;;21.50;99.90;;;;;;6276684;22;20012;-81
2023/06/26 02:37:18;;;;;;;12.27;10.98;;;21.50;99.90;;;;;;6251143;22;20047;-80
2023/06/26 02:39:44;;;;;;;13.10;11.27;;;21.40;99.90;;;;;;6250670;22;20008;-80
2023/06/26 02:42:09;;;;;;;13.90;10.68;;;21.40;99.90;;;;;;6251067;22;20341;-80
2023/06/26 02:44:35;;;;;;;13.38;11.32;;;21.40;99.90;;;;;;6251170;22;20012;-81
2023/06/26 02:47:00;;;;;;;13.85;10.75;;;21.40;99.90;;;;;;6250356;22;20020;-80
2023/06/26 02:49:26;;;;;;;12.30;10.20;;;21.40;99.90;;;;;;6250765;22;20019;-80
2023/06/26 02:51:51;;;;;;;11.82;9.40;;;21.40;99.90;;;;;;6275872;22;20065;-81
2023/06/26 02:54:17;;;;;;;11.73;9.85;;;21.30;99.90;;;;;;6276549;22;20382;-81
2023/06/26 02:56:42;;;;;;;11.50;10.02;;;21.30;99.90;;;;;;6249211;22;20008;-81
2023/06/26 02:59:08;;;;;;;12.70;10.07;;;21.30;99.90;;;;;;6275439;22;20004;-81
2023/06/26 03:01:34;;;;;;;12.63;10.20;;;21.30;99.90;;;;;;6250540;22;20434;-82
2023/06/26 03:04:00;;;;;;;12.35;10.07;;;21.40;99.90;;;;;;6250525;22;20058;-81
2023/06/26 03:06:27;;;;;;;12.10;9.95;;;21.30;99.90;;;;;;6250269;22;20050;-80
2023/06/26 03:08:53;;;;;;;13.18;10.88;;;21.30;99.90;;;;;;6249824;22;20020;-81
2023/06/26 03:11:19;;;;;;;12.93;10.73;;;21.30;99.90;;;;;;6250806;22;20014;-80
2023/06/26 03:13:44;;;;;;;12.27;10.43;;;21.40;99.90;;;;;;6250721;22;20023;-80
2023/06/26 03:16:10;;;;;;;11.73;9.85;;;21.20;99.90;;;;;;6275801;22;20015;-81
2023/06/26 03:18:36;;;;;;;12.77;10.13;;;21.30;99.90;;;;;;6275716;22;20354;-80
2023/06/26 03:21:01;;;;;;;13.18;11.38;;;21.30;99.90;;;;;;6275030;22;20008;-80
2023/06/26 03:23:27;;;;;;;13.13;11.00;;;21.20;99.90;;;;;;6250743;22;20008;-80
2023/06/26 03:25:53;;;;;;;12.77;10.57;;;21.20;99.90;;;;;;6250591;22;20008;-81
2023/06/26 03:28:19;;;;;;;13.38;11.07;;;21.20;99.90;;;;;;6250767;22;20019;-81
2023/06/26 03:30:44;;;;;;;12.30;10.82;;;21.10;99.90;;;;;;6250156;22;20008;-81
2023/06/26 03:33:10;;;;;;;13.73;11.75;;;21.20;99.90;;;;;;6250586;22;20177;-80
2023/06/26 03:35:36;;;;;;;14.18;11.85;;;21.20;99.90;;;;;;6276091;22;20016;-81
2023/06/26 03:38:01;;;;;;;14.40;12.18;;;21.20;99.90;;;;;;6275993;22;20012;-80
2023/06/26 03:40:27;;;;;;;14.00;12.10;;;21.20;99.90;;;;;;6249981;22;20015;-80
2023/06/26 03:42:53;;;;;;;13.65;12.20;;;21.20;99.90;;;;;;6250454;22;20026;-81
2023/06/26 03:45:19;;;;;;;14.52;12.10;;;21.20;99.90;;;;;;6250479;22;20012;-80
2023/06/26 03:47:48;;;;;;;13.98;11.80;;;21.20;99.90;;;;;;6275613;22;20065;-80
2023/06/26 03:50:14;;;;;;;15.48;11.35;;;21.20;99.90;;;;;;6250422;22;20061;-80
2023/06/26 03:52:40;;;;;;;15.27;11.82;;;21.10;99.90;;;;;;6248123;22;20020;-80
2023/06/26 03:55:05;;;;;;;14.48;11.60;;;21.10;99.90;;;;;;6246916;22;20026;-80
2023/06/26 03:57:31;;;;;;;14.82;11.85;;;21.10;99.90;;;;;;6245240;22;20012;-80
2023/06/26 03:59:57;;;;;;;13.93;11.25;;;21.10;99.90;;;;;;6243956;22;20446;-80
2023/06/26 04:02:22;;;;;;;13.63;10.90;;;21.10;99.90;;;;;;6275167;22;20011;-80
2023/06/26 04:04:48;;;;;;;14.13;11.15;;;21.00;99.90;;;;;;6275792;22;20043;-80
2023/06/26 04:07:14;;;;;;;14.27;10.60;;;21.10;99.90;;;;;;6249512;22;20454;-80
2023/06/26 04:09:39;;;;;;;12.55;10.13;;;21.10;99.90;;;;;;6275666;22;20011;-80
2023/06/26 04:12:06;;;;;;;14.25;9.82;;;21.10;99.90;;;;;;6274929;22;20094;-80
2023/06/26 04:14:32;;;;;;;13.15;10.13;;;21.20;99.90;;;;;;6276135;22;20026;-80
2023/06/26 04:17:01;;;;;;;11.75;10.27;;;21.20;99.90;;;;;;6249521;22;20469;-80
2023/06/26 04:19:27;;;;;;;12.85;10.25;;;21.10;99.90;;;;;;6275605;22;20012;-80
2023/06/26 04:21:52;;;;;;;13.50;10.02;;;21.10;99.90;;;;;;6275085;22;20050;-81
2023/06/26 04:24:18;;;;;;;12.32;9.98;;;21.10;99.90;;;;;;6250010;22;20018;-80
2023/06/26 04:26:45;;;;;;;11.63;8.88;;;21.10;99.90;;;;;;6249502;22;20019;-80
2023/06/26 04:29:10;;;;;;;12.13;8.63;;;21.00;99.90;;;;;;6249502;22;20341;-80
2023/06/26 04:31:36;;;;;;;14.18;9.80;;;21.10;99.90;;;;;;6249193;22;20015;-82
2023/06/26 04:34:02;;;;;;;11.70;9.90;;;21.10;99.90;;;;;;6275465;22;20019;-82
2023/06/26 04:36:31;;;;;;;12.45;9.18;;;21.10;99.90;;;;;;6274966;22;20094;-81
2023/06/26 04:38:57;;;;;;;11.85;8.55;;;21.10;99.90;;;;;;6301445;22;20043;-81
2023/06/26 04:41:22;;;;;;;13.30;8.73;;;21.10;99.90;;;;;;6274865;22;20018;-81
2023/06/26 04:43:48;;;;;;;12.77;9.15;;;21.20;99.90;;;;;;6275452;22;20008;-82
2023/06/26 04:46:14;;;;;;;11.82;9.27;;;21.20;99.90;;;;;;6249258;22;20016;-81
2023/06/26 04:48:39;;;;;;;11.70;8.32;;;21.10;99.90;;;;;;6326595;22;20015;-81
2023/06/26 04:51:05;;;;;;;12.23;8.27;;;21.30;99.90;;;;;;6249820;22;20020;-81
2023/06/26 04:53:31;;;;;;;12.93;8.02;;;21.30;99.90;;;;;;6249579;22;20472;-82
2023/06/26 04:55:56;;;;;;;13.73;8.20;;;21.30;99.90;;;;;;6249875;22;20015;-83
2023/06/26 04:58:22;;;;;;;11.32;7.65;;;21.40;99.90;;;;;;6274098;22;20008;-82
2023/06/26 05:00:48;;;;;;;11.77;8.95;;;21.40;99.90;;;;;;6249303;22;20008;-83
2023/06/26 05:03:16;;;;;;;11.13;8.35;;;21.40;99.90;;;;;;6272254;22;20464;-82
2023/06/26 05:05:42;;;;;;;13.73;8.68;;;21.50;99.90;;;;;;6270107;22;20045;-83
2023/06/26 05:08:15;;;;;;;14.00;9.00;;;21.50;99.90;;;;;;6267225;22;20023;-83
2023/06/26 05:10:41;;;;;;;12.15;9.35;;;21.40;99.90;;;;;;6242649;22;20350;-83
2023/06/26 05:13:06;;;;;;;13.38;8.43;;;21.40;99.90;;;;;;6293239;22;20024;-83
2023/06/26 05:15:32;;;;;;;13.48;8.68;;;21.40;99.90;;;;;;6242348;22;20018;-82
2023/06/26 05:17:57;;;;;;;10.98;7.85;;;21.40;99.90;;;;;;6245473;22;20020;-81
2023/06/26 05:20:23;;;;;;;12.25;8.70;;;21.30;99.90;;;;;;6241425;22;20022;-82
2023/06/26 05:22:49;;;;;;;13.63;8.27;;;21.30;99.90;;;;;;6294140;22;20082;-83
2023/06/26 05:25:15;;;;;;;17.42;9.70;;;21.30;99.90;;;;;;6245157;22;20008;-80
2023/06/26 05:27:41;;;;;;;13.98;9.18;;;21.30;99.90;;;;;;6243420;22;20066;-79
2023/06/26 05:30:07;;;;;;;18.70;9.35;;;21.30;99.90;;;;;;6267099;22;20457;-79
2023/06/26 05:32:35;;;;;;;21.88;9.45;;;21.30;99.90;;;;;;6244248;22;20511;-79
2023/06/26 05:35:03;;;;;;;16.30;9.18;;;21.30;99.90;;;;;;6242280;22;20431;-80
2023/06/26 05:37:30;;;;;;;22.25;9.05;;;21.20;99.90;;;;;;6267909;22;20012;-80
2023/06/26 05:39:56;;;;;;;19.73;9.77;;;21.10;99.90;;;;;;6268472;22;20398;-79
2023/06/26 05:42:22;;;;;;;15.48;8.73;;;21.00;99.90;;;;;;6292570;22;20012;-79
2023/06/26 05:44:47;;;;;;;17.65;8.50;;;20.90;99.90;;;;;;6293874;22;20319;-80
2023/06/26 05:47:13;;;;;;;17.70;8.30;;;20.90;99.90;;;;;;6270167;22;20446;-80
2023/06/26 05:49:39;;;;;;;16.63;8.45;;;21.10;99.90;;;;;;6316765;22;20019;-79
2023/06/26 05:52:05;;;;;;;15.25;9.88;;;21.10;99.90;;;;;;6270259;22;20011;-79
2023/06/26 05:54:30;;;;;;;16.25;8.93;;;21.00;99.90;;;;;;6272359;22;20012;-78
2023/06/26 05:57:00;;;;;;;16.33;8.82;;;21.00;99.90;;;;;;6247493;22;20018;-79
2023/06/26 05:59:26;;;;;;;13.55;7.75;;;21.10;99.90;;;;;;6273388;22;20031;-83
2023/06/26 06:01:53;;;;;;;14.70;8.32;;;20.90;99.90;;;;;;6246831;22;20051;-81
2023/06/26 06:04:18;;;;;;;14.57;8.18;;;21.00;99.90;;;;;;6273412;22;20004;-81
2023/06/26 06:06:44;;;;;;;16.27;7.38;;;20.90;99.90;;;;;;6299184;22;20475;-79
2023/06/26 06:09:09;;;;;;;16.48;7.93;;;20.90;99.90;;;;;;6323855;22;20011;-82
2023/06/26 06:11:35;;;;;;;15.85;7.70;;;20.90;99.90;;;;;;6325587;22;20054;-82
2023/06/26 06:14:01;;;;;;;12.73;6.90;;;20.90;99.90;;;;;;6299192;22;20459;-82
2023/06/26 06:16:28;;;;;;;13.70;6.70;;;21.00;99.90;;;;;;6323991;22;20015;-80
2023/06/26 06:18:54;;;;;;;13.85;5.55;;;21.00;99.90;;;;;;6272546;22;20007;-81
2023/06/26 06:21:20;;;;;;;12.55;5.60;;;21.00;99.90;;;;;;6298802;22;20007;-82
2023/06/26 06:23:45;;;;;;;13.23;5.10;;;21.10;99.90;;;;;;6246717;22;20011;-83
2023/06/26 06:26:11;;;;;;;13.77;4.55;;;21.30;99.90;;;;;;6299346;22;20047;-82
2023/06/26 06:28:36;;;;;;;11.65;4.25;;;21.30;99.90;;;;;;6298799;22;20012;-84
2023/06/26 06:31:02;;;;;;;14.13;4.60;;;21.40;99.90;;;;;;6246353;22;20350;-81
2023/06/26 06:33:28;;;;;;;14.45;4.22;;;21.40;99.90;;;;;;6301793;22;20011;-81
2023/06/26 06:35:53;;;;;;;10.25;3.97;;;21.60;99.90;;;;;;6326559;22;20012;-81
2023/06/26 06:38:19;;;;;;;10.43;3.80;;;21.50;99.90;;;;;;6249872;22;20441;-81
2023/06/26 06:40:44;;;;;;;14.25;4.13;;;21.50;99.90;;;;;;6300059;22;20012;-80
2023/06/26 06:43:10;;;;;;;9.90;3.90;;;21.50;99.90;;;;;;6250735;22;20004;-80
2023/06/26 06:45:37;;;;;;;16.35;4.68;;;21.50;99.90;;;;;;6301996;22;20047;-79
2023/06/26 06:48:04;;;;;;;12.13;4.18;;;21.50;99.90;;;;;;6299771;22;20020;-77
2023/06/26 06:50:29;;;;;;;9.23;3.53;;;21.60;99.90;;;;;;6272571;22;20016;-80
2023/06/26 06:52:55;;;;;;;12.30;3.50;;;21.70;99.90;;;;;;6324373;22;20043;-80
2023/06/26 06:55:20;;;;;;;12.00;3.78;;;21.80;99.90;;;;;;6274975;22;20011;-82
2023/06/26 06:57:46;;;;;;;10.73;3.60;;;21.80;99.90;;;;;;6300737;22;20020;-83
2023/06/26 07:00:14;;;;;;;11.25;3.40;;;21.90;99.90;;;;;;6300297;22;20323;-84
2023/06/26 07:02:43;;;;;;;10.40;2.90;;;22.00;99.90;;;;;;6250075;22;20057;-84
2023/06/26 07:05:09;;;;;;;9.38;3.00;;;21.90;99.90;;;;;;6273955;22;20046;-84
2023/06/26 07:07:36;;;;;;;9.00;3.08;;;21.90;99.90;;;;;;6249286;22;20049;-84
2023/06/26 07:10:08;;;;;;;5.88;2.67;;;21.80;99.90;;;;;;6274301;22;20320;-84
2023/06/26 07:12:34;;;;;;;10.75;2.47;;;21.90;99.90;;;;;;6249320;22;20559;-82
2023/06/26 07:15:01;;;;;;;8.77;2.50;;;22.00;99.90;;;;;;6248518;22;20047;-82
2023/06/26 07:17:27;;;;;;;8.98;2.13;;;22.10;99.90;;;;;;6248537;22;20008;-83
2023/06/26 07:19:52;;;;;;;9.85;2.78;;;22.10;99.90;;;;;;6274463;22;20007;-80
2023/06/26 07:22:21;;;;;;;7.60;2.28;;;22.20;99.90;;;;;;6248530;22;20088;-81
2023/06/26 07:24:47;;;;;;;9.65;2.45;;;22.20;99.90;;;;;;6248492;22;20011;-80
2023/06/26 07:27:17;;;;;;;10.43;2.40;;;22.20;99.90;;;;;;6248644;22;20085;-79
2023/06/26 07:29:43;;;;;;;13.52;2.47;;;22.40;99.90;;;;;;6274919;22;20515;-80
2023/06/26 07:32:08;;;;;;;9.15;2.55;;;22.50;99.90;;;;;;6248583;22;20016;-80
2023/06/26 07:34:34;;;;;;;7.97;2.08;;;22.50;99.90;;;;;;6300244;22;20409;-81
2023/06/26 07:37:00;;;;;;;9.20;2.30;;;22.60;99.90;;;;;;6248722;22;20023;-80
2023/06/26 07:39:26;;;;;;;9.20;2.60;;;22.50;99.90;;;;;;6275088;22;20015;-80
2023/06/26 07:41:51;;;;;;;10.02;2.40;;;22.50;99.90;;;;;;6248902;22;20011;-80
2023/06/26 07:44:17;;;;;;;7.60;2.50;;;22.50;99.90;;;;;;6326692;22;20008;-82
2023/06/26 07:46:44;;;;;;;9.40;2.63;;;22.60;99.90;;;;;;6247920;22;20441;-78
2023/06/26 07:49:10;;;;;;;10.98;3.22;;;22.60;99.90;;;;;;6273624;22;20540;-82
2023/06/26 07:51:36;;;;;;;8.73;2.42;;;22.60;99.90;;;;;;6248094;22;20647;-82
2023/06/26 07:54:01;;;;;;;7.60;2.38;;;22.50;99.90;;;;;;6243781;22;20019;-82
2023/06/26 07:56:27;;;;;;;9.63;2.30;;;22.60;99.90;;;;;;6319743;22;20374;-82
2023/06/26 07:58:52;;;;;;;8.60;2.50;;;22.80;99.90;;;;;;6291724;22;20012;-82
2023/06/26 08:01:18;;;;;;;9.07;2.30;;;22.80;99.90;;;;;;6266895;22;20037;-83
2023/06/26 08:03:43;;;;;;;6.47;2.13;;;22.70;99.90;;;;;;6318219;22;20019;-82
2023/06/26 08:06:09;;;;;;;7.63;2.35;;;22.60;99.90;;;;;;6266533;22;20483;-83
2023/06/26 08:08:35;;;;;;;8.35;2.00;;;22.60;99.90;;;;;;6240976;22;20073;-84
2023/06/26 08:11:00;;;;;;;7.38;2.28;;;22.50;99.90;;;;;;6240984;22;20098;-82
2023/06/26 08:13:26;;;;;;;7.55;2.28;;;22.50;99.90;;;;;;6241133;22;20023;-83
2023/06/26 08:15:51;;;;;;;7.13;1.92;;;22.60;99.90;;;;;;6241764;22;20015;-83
2023/06/26 08:18:18;;;;;;;7.38;1.88;;;22.90;99.90;;;;;;6319398;22;20376;-84
2023/06/26 08:20:44;;;;;;;5.55;1.80;;;22.90;99.90;;;;;;6242022;22;20008;-82
2023/06/26 08:23:09;;;;;;;11.10;2.30;;;22.90;99.90;;;;;;6266949;22;20511;-83
2023/06/26 08:25:35;;;;;;;9.18;2.72;;;23.00;99.90;;;;;;6240454;22;20022;-84
2023/06/26 08:28:00;;;;;;;7.40;2.13;;;23.20;99.90;;;;;;6266561;22;20341;-83
2023/06/26 08:30:28;;;;;;;9.00;2.33;;;22.90;99.90;;;;;;6266606;22;20062;-81
2023/06/26 08:32:57;;;;;;;7.07;1.70;;;23.00;99.90;;;;;;6266050;22;20556;-81
2023/06/26 08:35:23;;;;;;;8.25;2.17;;;23.10;99.90;;;;;;6265481;22;20015;-81
2023/06/26 08:37:48;;;;;;;6.85;2.00;;;23.10;99.90;;;;;;6266128;22;20030;-83
2023/06/26 08:40:18;;;;;;;5.20;1.85;;;22.90;99.90;;;;;;6291824;22;20043;-81
2023/06/26 08:42:44;;;;;;;8.82;2.40;;;22.80;99.90;;;;;;6240179;22;20022;-82
2023/06/26 08:45:09;;;;;;;6.20;1.73;;;22.80;99.90;;;;;;6240745;22;20012;-83
2023/06/26 08:47:37;;;;;;;6.22;2.30;;;22.80;99.90;;;;;;6265878;22;20019;-82
2023/06/26 08:50:13;;;;;;;6.40;2.22;;;22.70;99.90;;;;;;6242402;22;20008;-83
2023/06/26 08:52:58;;;;;;;5.43;2.20;;;22.80;99.90;;;;;;6271556;22;20095;-83
2023/06/26 08:55:27;;;;;;;8.35;2.13;;;22.90;99.90;;;;;;6273822;22;20008;-83
2023/06/26 08:57:53;;;;;;;6.15;2.20;;;23.00;99.90;;;;;;6265289;22;20480;-82
2023/06/26 09:00:19;;;;;;;6.47;1.95;;;23.10;99.90;;;;;;6239958;22;20570;-82
2023/06/26 09:02:45;;;;;;;10.82;2.17;;;22.70;99.90;;;;;;6267848;22;20018;-82
2023/06/26 09:05:11;;;;;;;7.22;2.60;;;22.70;99.90;;;;;;6291588;22;20405;-83
2023/06/26 09:07:37;;;;;;;8.65;2.63;;;22.60;99.90;;;;;;6319065;22;20020;-77
2023/06/26 09:10:02;;;;;;;6.22;2.10;;;22.60;99.90;;;;;;6266058;22;20550;-77
2023/06/26 09:12:28;;;;;;;7.22;1.90;;;22.70;99.90;;;;;;6239966;22;20118;-80
2023/06/26 09:14:57;;;;;;;17.85;2.60;;;22.90;99.90;;;;;;6266199;22;20012;-81
2023/06/26 09:17:30;;;;;;;6.10;2.20;;;22.90;99.90;;;;;;6240449;22;20015;-80
2023/06/26 09:19:56;;;;;;;6.75;2.65;;;23.10;99.90;;;;;;6265954;22;20398;-78
2023/06/26 09:22:22;;;;;;;7.35;2.60;;;23.00;99.90;;;;;;6269300;22;20080;-79
2023/06/26 09:24:48;;;;;;;12.57;2.78;;;23.10;99.90;;;;;;6266712;22;20008;-79
2023/06/26 09:27:14;;;;;;;7.65;2.67;;;23.30;99.90;;;;;;6317455;22;20011;-79
2023/06/26 09:29:39;;;;;;;7.30;2.30;;;23.30;99.90;;;;;;6291554;22;20046;-79
2023/06/26 09:32:07;;;;;;;9.25;2.80;;;23.40;99.90;;;;;;6292101;22;20027;-79
2023/06/26 09:34:33;;;;;;;5.95;2.30;;;23.40;99.90;;;;;;6265006;22;20019;-79
2023/06/26 09:37:02;;;;;;;6.75;2.13;;;23.30;99.90;;;;;;6292440;22;20450;-79
2023/06/26 09:39:30;;;;;;;5.25;2.17;;;23.30;99.90;;;;;;6265105;22;20003;-86
2023/06/26 09:41:57;;;;;;;7.03;2.30;;;23.40;99.90;;;;;;6266900;22;20020;-81
2023/06/26 09:44:22;;;;;;;8.20;2.30;;;23.20;99.90;;;;;;6271392;22;20019;-82
2023/06/26 09:46:48;;;;;;;7.82;2.40;;;23.30;99.90;;;;;;6298345;22;20011;-81
2023/06/26 09:49:14;;;;;;;6.10;2.10;;;23.30;99.90;;;;;;6273211;22;20029;-81
2023/06/26 09:51:41;;;;;;;7.22;2.40;;;23.40;99.90;;;;;;6300002;22;20054;-82
2023/06/26 09:54:07;;;;;;;7.72;2.50;;;23.40;99.90;;;;;;6248081;22;20016;-81
2023/06/26 09:56:33;;;;;;;9.30;2.50;;;23.50;99.90;;;;;;6247291;22;20477;-80
2023/06/26 09:59:01;;;;;;;8.23;2.60;;;23.40;99.90;;;;;;6247713;22;20019;-82
2023/06/26 10:01:27;;;;;;;7.13;2.40;;;23.40;99.90;;;;;;6248021;22;20069;-82
2023/06/26 10:03:54;;;;;;;9.38;2.70;;;23.40;99.90;;;;;;6247333;22;20012;-83
2023/06/26 10:06:42;;;;;;;7.47;3.15;;;23.40;99.90;;;;;;6273333;22;20471;-81
2023/06/26 10:09:08;;;;;;;7.15;2.47;;;23.50;99.90;;;;;;6272776;22;20020;-81
2023/06/26 10:11:56;;;;;;;7.15;2.53;;;23.50;99.90;;;;;;6274135;22;20038;-82
2023/06/26 10:14:24;;;;;;;10.25;2.55;;;23.40;99.90;;;;;;6273035;22;20469;-79
2023/06/26 10:16:50;;;;;;;7.30;2.75;;;23.50;99.90;;;;;;6273949;22;20026;-83
2023/06/26 10:19:25;;;;;;;7.82;2.85;;;23.60;99.90;;;;;;6274096;22;20457;-82
2023/06/26 10:21:55;;;;;;;8.52;2.72;;;23.50;99.90;;;;;;6248173;22;20012;-81
2023/06/26 10:24:26;;;;;;;8.88;2.80;;;23.50;99.90;;;;;;6273692;22;20057;-83
2023/06/26 10:27:06;;;;;;;7.25;2.80;;;23.30;99.90;;;;;;6272640;22;20066;-82
2023/06/26 10:29:35;;;;;;;8.57;2.80;;;22.90;99.90;;;;;;6274450;22;20347;-80
2023/06/26 10:32:03;;;;;;;7.35;2.65;;;22.90;99.90;;;;;;6250472;22;20051;-82
2023/06/26 10:34:28;;;;;;;7.85;2.67;;;23.00;99.90;;;;;;6250582;22;20014;-82
2023/06/26 10:37:04;;;;;;;6.20;2.80;;;23.00;99.90;;;;;;6275877;22;20349;-83
2023/06/26 10:39:49;;;;;;;7.10;2.80;;;22.90;99.90;;;;;;6250084;22;20029;-82
2023/06/26 10:42:17;;;;;;;8.63;2.67;;;23.10;99.90;;;;;;6275400;22;20008;-82
2023/06/26 10:44:47;;;;;;;7.00;2.20;;;23.30;99.90;;;;;;6248255;22;20015;-84
2023/06/26 10:47:32;;;;;;;8.20;2.92;;;23.50;99.90;;;;;;6249631;22;20012;-81
2023/06/26 10:50:16;;;;;;;6.65;2.33;;;23.60;99.90;;;;;;6275526;22;20015;-83
2023/06/26 10:52:42;;;;;;;7.18;2.30;;;23.50;99.90;;;;;;6249326;22;20469;-82
2023/06/26 10:55:10;;;;;;;7.35;1.98;;;23.40;99.90;;;;;;6275320;22;20016;-81
2023/06/26 10:57:38;;;;;;;5.85;2.05;;;23.20;98.20;;;;;;6300865;22;20065;-83
2023/06/26 11:00:14;;;;;;;6.00;1.75;;;23.20;98.40;;;;;;6275271;22;20012;-80
2023/06/26 11:02:50;;;;;;;9.68;2.40;;;23.00;98.70;;;;;;6275085;22;20008;-76
2023/06/26 11:05:32;;;;;;;7.93;2.50;;;23.10;99.90;;;;;;6274941;22;20069;-76
2023/06/26 11:08:09;;;;;;;8.80;2.25;;;22.90;99.90;;;;;;6249818;22;20454;-75
2023/06/26 11:10:54;;;;;;;6.68;2.67;;;23.00;99.00;;;;;;6249689;22;20046;-76
2023/06/26 11:13:20;;;;;;;6.72;2.35;;;22.70;99.70;;;;;;6274860;22;20081;-76
2023/06/26 11:15:50;;;;;;;6.10;2.35;;;22.50;99.90;;;;;;6276006;22;20441;-76
2023/06/26 11:18:16;;;;;;;7.82;2.78;;;22.60;99.90;;;;;;6249726;22;20525;-75
2023/06/26 11:20:42;;;;;;;6.80;2.47;;;22.90;99.90;;;;;;6325452;22;20039;-75
2023/06/26 11:23:09;;;;;;;7.68;2.60;;;23.10;99.90;;;;;;6325693;22;20052;-81
2023/06/26 11:25:38;;;;;;;9.48;2.97;;;23.10;99.90;;;;;;6274926;22;20011;-79
2023/06/26 11:28:05;;;;;;;7.65;2.60;;;23.10;99.90;;;;;;6326531;22;20011;-80
2023/06/26 11:30:31;;;;;;;5.40;2.20;;;22.80;99.90;;;;;;6249770;22;20018;-80
2023/06/26 11:33:04;;;;;;;8.10;2.38;;;22.70;99.90;;;;;;6248338;22;20055;-80
2023/06/26 11:35:30;;;;;;;4.78;1.90;;;22.60;99.90;;;;;;6271109;22;20007;-80
2023/06/26 11:38:06;;;;;;;7.75;2.40;;;22.70;99.90;;;;;;6274665;22;20161;-81
2023/06/26 11:40:36;;;;;;;4.60;2.00;;;22.90;99.90;;;;;;6248122;22;20009;-80
2023/06/26 11:43:03;;;;;;;7.28;2.13;;;22.90;99.50;;;;;;6247007;22;20019;-80
2023/06/26 11:45:30;;;;;;;8.02;1.88;;;22.90;99.90;;;;;;6275211;22;20007;-80
2023/06/26 11:47:57;;;;;;;3.80;1.50;;;23.00;99.90;;;;;;6274528;22;20007;-80
2023/06/26 11:50:24;;;;;;;7.03;2.10;;;23.20;99.90;;;;;;6274862;22;20011;-81
2023/06/26 11:52:57;;;;;;;7.72;2.55;;;23.10;99.90;;;;;;6275359;22;20008;-81
2023/06/26 11:55:26;;;;;;;12.18;2.75;;;22.80;99.90;;;;;;6275061;22;20042;-80
2023/06/26 11:57:56;;;;;;;7.22;1.92;;;22.70;99.90;;;;;;6274563;22;20050;-80
2023/06/26 12:00:23;;;;;;;6.35;1.83;;;22.70;99.90;;;;;;6275176;22;20043;-80
2023/06/26 12:02:49;;;;;;;5.53;1.50;;;22.80;99.70;;;;;;6249535;22;20057;-79
2023/06/26 12:05:16;;;;;;;4.70;1.25;;;22.70;99.90;;;;;;6275529;22;20086;-80
2023/06/26 12:07:51;;;;;;;5.47;1.75;;;22.70;99.90;;;;;;6247488;22;20016;-80
2023/06/26 12:10:18;;;;;;;5.53;1.35;;;22.80;99.80;;;;;;6326844;22;20311;-81
2023/06/26 12:12:44;;;;;;;6.05;1.42;;;22.60;99.90;;;;;;6250125;22;20442;-80
2023/06/26 12:15:15;;;;;;;8.95;2.03;;;22.70;99.90;;;;;;6248626;22;20102;-80
2023/06/26 12:17:41;;;;;;;7.07;1.35;;;22.70;99.90;;;;;;6274311;22;20016;-80
2023/06/26 12:20:19;;;;;;;10.70;1.90;;;22.60;99.90;;;;;;6325918;22;20037;-80
2023/06/26 12:22:46;;;;;;;9.20;1.80;;;22.50;99.90;;;;;;6249024;22;20091;-80
2023/06/26 12:25:12;;;;;;;5.80;1.50;;;22.60;99.90;;;;;;6249118;22;20016;-78
2023/06/26 12:27:38;;;;;;;5.43;1.15;;;22.60;99.90;;;;;;6275043;22;20451;-80
2023/06/26 12:30:05;;;;;;;11.40;1.85;;;22.60;99.80;;;;;;6327315;22;20022;-80
2023/06/26 12:32:30;;;;;;;6.00;1.90;;;22.60;99.60;;;;;;6249432;22;20012;-79
2023/06/26 12:34:57;;;;;;;7.05;1.70;;;22.60;99.80;;;;;;6249137;22;20085;-81
2023/06/26 12:37:22;;;;;;;7.78;1.60;;;22.40;98.10;;;;;;6248737;22;20015;-81
2023/06/26 12:39:51;;;;;;;6.13;1.60;;;22.20;99.60;;;;;;6300459;22;20500;-82